sensor_id;sensor_type;location;lat;lon;timestamp;pressure;altitude;pressure_sealevel;temperature;humidity
35758;BME280;21879;50.110;18.900;2023-05-20T00:03:12;99515.95;;;12.02;71.70
35758;BME280;21879;50.110;18.900;2023-05-20T00:13:38;99515.25;;;11.97;71.65
35758;BME280;21879;50.110;18.900;2023-05-20T00:24:05;99513.86;;;11.82;71.81
35758;BME280;21879;50.110;18.900;2023-05-20T00:34:30;99512.65;;;11.84;72.16
35758;BME280;21879;50.110;18.900;2023-05-20T00:44:56;99507.60;;;11.88;72.10
35758;BME280;21879;50.110;18.900;2023-05-20T00:55:22;99492.97;;;11.84;72.14
35758;BME280;21879;50.110;18.900;2023-05-20T01:05:48;99492.44;;;11.88;72.40
35758;BME280;21879;50.110;18.900;2023-05-20T01:16:16;99490.32;;;11.99;72.40
35758;BME280;21879;50.110;18.900;2023-05-20T01:26:43;99482.64;;;12.06;72.34
35758;BME280;21879;50.110;18.900;2023-05-20T01:37:13;99493.26;;;12.13;72.33
35758;BME280;21879;50.110;18.900;2023-05-20T01:47:39;99497.04;;;12.25;72.36
35758;BME280;21879;50.110;18.900;2023-05-20T01:58:04;99482.39;;;12.27;71.95
35758;BME280;21879;50.110;18.900;2023-05-20T02:08:30;99485.05;;;12.17;71.86
35758;BME280;21879;50.110;18.900;2023-05-20T02:18:56;99484.48;;;12.26;72.07
35758;BME280;21879;50.110;18.900;2023-05-20T02:29:22;99484.63;;;12.36;71.74
35758;BME280;21879;50.110;18.900;2023-05-20T02:39:48;99484.83;;;12.31;71.78
35758;BME280;21879;50.110;18.900;2023-05-20T02:50:14;99498.80;;;12.20;71.50
35758;BME280;21879;50.110;18.900;2023-05-20T03:00:41;99501.83;;;12.00;71.62
35758;BME280;21879;50.110;18.900;2023-05-20T03:11:07;99500.63;;;11.92;72.02
35758;BME280;21879;50.110;18.900;2023-05-20T03:21:33;99501.65;;;12.04;72.32
35758;BME280;21879;50.110;18.900;2023-05-20T03:31:59;99506.69;;;12.06;72.08
35758;BME280;21879;50.110;18.900;2023-05-20T03:42:24;99499.56;;;11.95;72.05
35758;BME280;21879;50.110;18.900;2023-05-20T03:52:50;99502.02;;;11.90;72.38
35758;BME280;21879;50.110;18.900;2023-05-20T04:03:17;99508.46;;;11.83;72.64
35758;BME280;21879;50.110;18.900;2023-05-20T04:13:42;99508.11;;;11.84;72.80
35758;BME280;21879;50.110;18.900;2023-05-20T04:24:08;99514.40;;;11.89;73.10
35758;BME280;21879;50.110;18.900;2023-05-20T04:34:34;99517.14;;;12.08;73.13
35758;BME280;21879;50.110;18.900;2023-05-20T04:45:00;99509.61;;;12.22;73.11
35758;BME280;21879;50.110;18.900;2023-05-20T04:55:29;99508.36;;;12.30;72.88
35758;BME280;21879;50.110;18.900;2023-05-20T05:05:57;99512.35;;;12.37;72.90
35758;BME280;21879;50.110;18.900;2023-05-20T05:16:23;99508.35;;;12.36;72.79
35758;BME280;21879;50.110;18.900;2023-05-20T05:26:53;99499.60;;;12.42;72.99
35758;BME280;21879;50.110;18.900;2023-05-20T05:37:19;99500.44;;;12.48;72.88
35758;BME280;21879;50.110;18.900;2023-05-20T05:47:45;99496.91;;;12.57;73.06
35758;BME280;21879;50.110;18.900;2023-05-20T05:58:11;99506.29;;;12.66;73.16
35758;BME280;21879;50.110;18.900;2023-05-20T06:08:37;99502.70;;;12.81;73.13
35758;BME280;21879;50.110;18.900;2023-05-20T06:19:03;99489.09;;;12.85;73.03
35758;BME280;21879;50.110;18.900;2023-05-20T06:29:29;99485.95;;;12.84;72.93
35758;BME280;21879;50.110;18.900;2023-05-20T06:39:55;99492.02;;;12.89;72.92
35758;BME280;21879;50.110;18.900;2023-05-20T06:50:21;99490.90;;;12.98;73.21
35758;BME280;21879;50.110;18.900;2023-05-20T07:00:48;99494.98;;;13.15;73.34
35758;BME280;21879;50.110;18.900;2023-05-20T07:11:14;99484.39;;;13.35;73.19
35758;BME280;21879;50.110;18.900;2023-05-20T07:21:40;99477.66;;;13.45;72.81
35758;BME280;21879;50.110;18.900;2023-05-20T07:32:07;99468.83;;;13.55;72.76
35758;BME280;21879;50.110;18.900;2023-05-20T07:42:32;99472.20;;;13.70;72.83
35758;BME280;21879;50.110;18.900;2023-05-20T07:52:58;99467.80;;;13.90;72.82
35758;BME280;21879;50.110;18.900;2023-05-20T08:03:24;99459.25;;;14.03;72.59
35758;BME280;21879;50.110;18.900;2023-05-20T08:13:50;99453.29;;;14.20;72.59
35758;BME280;21879;50.110;18.900;2023-05-20T08:24:16;99432.64;;;14.33;72.39
35758;BME280;21879;50.110;18.900;2023-05-20T08:34:42;99428.83;;;14.59;72.59
35758;BME280;21879;50.110;18.900;2023-05-20T08:45:11;99433.81;;;14.77;71.84
35758;BME280;21879;50.110;18.900;2023-05-20T08:55:51;99432.10;;;14.87;71.49
35758;BME280;21879;50.110;18.900;2023-05-20T09:06:18;99428.23;;;15.00;71.40
35758;BME280;21879;50.110;18.900;2023-05-20T09:16:44;99426.46;;;15.11;71.13
35758;BME280;21879;50.110;18.900;2023-05-20T09:27:10;99433.20;;;15.27;71.07
35758;BME280;21879;50.110;18.900;2023-05-20T09:37:37;99419.33;;;15.49;71.00
35758;BME280;21879;50.110;18.900;2023-05-20T09:48:04;99407.26;;;15.67;70.76
35758;BME280;21879;50.110;18.900;2023-05-20T09:58:34;99416.51;;;15.80;70.42
35758;BME280;21879;50.110;18.900;2023-05-20T10:09:13;99411.02;;;15.92;70.17
35758;BME280;21879;50.110;18.900;2023-05-20T10:19:43;99401.48;;;16.12;70.19
35758;BME280;21879;50.110;18.900;2023-05-20T10:30:16;99388.38;;;16.26;69.59
35758;BME280;21879;50.110;18.900;2023-05-20T10:40:42;99389.02;;;16.53;69.47
35758;BME280;21879;50.110;18.900;2023-05-20T10:51:14;99380.05;;;16.61;68.72
35758;BME280;21879;50.110;18.900;2023-05-20T11:01:42;99365.73;;;16.73;68.69
35758;BME280;21879;50.110;18.900;2023-05-20T11:12:08;99354.19;;;17.00;68.32
35758;BME280;21879;50.110;18.900;2023-05-20T11:22:34;99334.04;;;17.26;67.98
35758;BME280;21879;50.110;18.900;2023-05-20T11:33:02;99325.65;;;17.49;68.15
35758;BME280;21879;50.110;18.900;2023-05-20T11:43:26;99320.77;;;17.74;67.62
35758;BME280;21879;50.110;18.900;2023-05-20T11:54:02;99308.39;;;17.83;67.04
35758;BME280;21879;50.110;18.900;2023-05-20T12:04:28;99293.48;;;18.04;67.28
35758;BME280;21879;50.110;18.900;2023-05-20T12:14:55;99284.52;;;18.20;66.73
35758;BME280;21879;50.110;18.900;2023-05-20T12:25:21;99274.45;;;18.39;66.60
35758;BME280;21879;50.110;18.900;2023-05-20T12:35:46;99258.55;;;18.52;66.04
35758;BME280;21879;50.110;18.900;2023-05-20T12:46:12;99252.89;;;18.63;65.71
35758;BME280;21879;50.110;18.900;2023-05-20T12:56:38;99243.19;;;18.80;65.76
35758;BME280;21879;50.110;18.900;2023-05-20T13:07:06;99239.02;;;18.93;65.10
35758;BME280;21879;50.110;18.900;2023-05-20T13:17:32;99237.73;;;19.10;65.16
35758;BME280;21879;50.110;18.900;2023-05-20T13:27:58;99225.92;;;19.24;64.84
35758;BME280;21879;50.110;18.900;2023-05-20T13:38:24;99205.63;;;19.44;64.66
35758;BME280;21879;50.110;18.900;2023-05-20T13:48:50;99196.54;;;19.60;64.32
35758;BME280;21879;50.110;18.900;2023-05-20T13:59:16;99189.38;;;19.73;63.94
35758;BME280;21879;50.110;18.900;2023-05-20T14:09:42;99178.47;;;19.86;63.41
35758;BME280;21879;50.110;18.900;2023-05-20T14:20:10;99167.06;;;19.97;62.92
35758;BME280;21879;50.110;18.900;2023-05-20T14:30:36;99155.90;;;20.07;62.22
35758;BME280;21879;50.110;18.900;2023-05-20T14:41:02;99143.68;;;20.16;61.81
35758;BME280;21879;50.110;18.900;2023-05-20T14:51:28;99136.39;;;20.30;61.39
35758;BME280;21879;50.110;18.900;2023-05-20T15:01:54;99128.79;;;20.43;60.92
35758;BME280;21879;50.110;18.900;2023-05-20T15:12:21;99123.49;;;20.51;60.35
35758;BME280;21879;50.110;18.900;2023-05-20T15:22:47;99111.52;;;20.59;59.75
35758;BME280;21879;50.110;18.900;2023-05-20T15:33:13;99095.04;;;20.64;59.14
35758;BME280;21879;50.110;18.900;2023-05-20T15:43:40;99097.80;;;20.66;58.83
35758;BME280;21879;50.110;18.900;2023-05-20T15:54:06;99101.33;;;20.66;58.65
35758;BME280;21879;50.110;18.900;2023-05-20T16:04:32;99097.94;;;20.66;58.65
35758;BME280;21879;50.110;18.900;2023-05-20T16:14:58;99090.84;;;20.67;58.80
35758;BME280;21879;50.110;18.900;2023-05-20T16:25:24;99090.81;;;20.63;58.96
35758;BME280;21879;50.110;18.900;2023-05-20T16:35:50;99087.50;;;20.55;59.22
35758;BME280;21879;50.110;18.900;2023-05-20T16:46:16;99080.59;;;20.46;59.66
35758;BME280;21879;50.110;18.900;2023-05-20T16:56:41;99083.56;;;20.39;60.13
35758;BME280;21879;50.110;18.900;2023-05-20T17:07:07;99095.86;;;20.32;60.41
35758;BME280;21879;50.110;18.900;2023-05-20T17:17:35;99095.64;;;20.30;60.68
35758;BME280;21879;50.110;18.900;2023-05-20T17:28:00;99095.90;;;20.28;60.92
35758;BME280;21879;50.110;18.900;2023-05-20T17:38:26;99097.21;;;20.22;61.01
35758;BME280;21879;50.110;18.900;2023-05-20T17:48:52;99100.19;;;20.14;61.11
35758;BME280;21879;50.110;18.900;2023-05-20T17:59:18;99100.17;;;20.06;61.22
35758;BME280;21879;50.110;18.900;2023-05-20T18:09:44;99104.45;;;19.96;61.58
35758;BME280;21879;50.110;18.900;2023-05-20T18:20:13;99097.52;;;19.81;61.94
35758;BME280;21879;50.110;18.900;2023-05-20T18:30:38;99107.55;;;19.67;62.43
35758;BME280;21879;50.110;18.900;2023-05-20T18:41:05;99106.50;;;19.53;62.84
35758;BME280;21879;50.110;18.900;2023-05-20T18:51:30;99108.56;;;19.41;63.42
35758;BME280;21879;50.110;18.900;2023-05-20T19:01:58;99110.19;;;19.36;63.64
35758;BME280;21879;50.110;18.900;2023-05-20T19:12:24;99118.99;;;19.27;63.91
35758;BME280;21879;50.110;18.900;2023-05-20T19:22:49;99119.03;;;19.21;64.30
35758;BME280;21879;50.110;18.900;2023-05-20T19:33:16;99121.18;;;19.16;64.50
35758;BME280;21879;50.110;18.900;2023-05-20T19:43:41;99123.56;;;19.04;64.67
35758;BME280;21879;50.110;18.900;2023-05-20T19:54:07;99118.09;;;18.95;64.94
35758;BME280;21879;50.110;18.900;2023-05-20T20:04:33;99123.05;;;18.79;64.75
35758;BME280;21879;50.110;18.900;2023-05-20T20:14:59;99121.02;;;18.67;64.45
35758;BME280;21879;50.110;18.900;2023-05-20T20:25:25;99122.95;;;18.57;63.64
35758;BME280;21879;50.110;18.900;2023-05-20T20:35:51;99119.61;;;18.52;63.11
35758;BME280;21879;50.110;18.900;2023-05-20T20:46:18;99120.30;;;18.37;62.71
35758;BME280;21879;50.110;18.900;2023-05-20T20:56:44;99120.39;;;18.29;62.96
35758;BME280;21879;50.110;18.900;2023-05-20T21:07:10;99125.91;;;18.12;62.76
35758;BME280;21879;50.110;18.900;2023-05-20T21:18:14;99132.52;;;17.98;63.07
35758;BME280;21879;50.110;18.900;2023-05-20T21:28:45;99126.08;;;17.85;63.05
35758;BME280;21879;50.110;18.900;2023-05-20T21:39:10;99121.15;;;17.80;63.41
35758;BME280;21879;50.110;18.900;2023-05-20T21:49:37;99118.79;;;17.64;63.37
35758;BME280;21879;50.110;18.900;2023-05-20T22:00:03;99117.13;;;17.50;63.72
35758;BME280;21879;50.110;18.900;2023-05-20T22:10:30;99116.45;;;17.49;63.86
35758;BME280;21879;50.110;18.900;2023-05-20T22:20:57;99111.52;;;17.44;63.85
35758;BME280;21879;50.110;18.900;2023-05-20T22:31:24;99107.42;;;17.23;64.10
35758;BME280;21879;50.110;18.900;2023-05-20T22:41:50;99105.55;;;17.20;64.55
35758;BME280;21879;50.110;18.900;2023-05-20T22:52:17;99101.55;;;17.25;64.59
35758;BME280;21879;50.110;18.900;2023-05-20T23:02:45;99099.38;;;17.38;64.86
35758;BME280;21879;50.110;18.900;2023-05-20T23:24:34;99098.13;;;17.16;64.52
35758;BME280;21879;50.110;18.900;2023-05-20T23:35:00;99100.08;;;17.03;64.91
35758;BME280;21879;50.110;18.900;2023-05-20T23:45:45;99095.90;;;17.08;65.16
35758;BME280;21879;50.110;18.900;2023-05-20T23:56:10;99096.52;;;17.05;65.30
